| Date | Time | Temp. (oF) | Dew Point (oF) | Rel. Hum. (%) | Press. (in.) | Wind Dir. | Wind Speed (mph) | Hourly Rainfall (in.) |
|
|---|---|---|---|---|---|---|---|---|---|
| 1 | 10/15 | 00:00 | 48 | 46 | 96 | 29.72 | W | 8 | 0.00 |
| 2 | 10/14 | 23:00 | 49 | 45 | 89 | 29.74 | N | 2 | 0.00 |
| 3 | 10/14 | 22:00 | 49 | 42 | 78 | 29.74 | NNW | 2 | 0.00 |
| 4 | 10/14 | 21:00 | 49 | 42 | 78 | 29.73 | NW | 3 | 0.00 |
| 5 | 10/14 | 20:00 | 49 | 43 | 80 | 29.76 | NW | 1 | 0.00 |
| 6 | 10/14 | 19:00 | 49 | 43 | 80 | 29.76 | NNW | 1 | 0.00 |
| 7 | 10/14 | 18:00 | 50 | 43 | 79 | 29.78 | E | 0 | 0.00 |
| 8 | 10/14 | 17:00 | 50 | 43 | 79 | 29.78 | NW | 2 | 0.02 |
| 9 | 10/14 | 16:00 | 50 | 44 | 80 | 29.78 | ESE | 3 | 0.03 |
| 10 | 10/14 | 15:00 | 50 | 44 | 81 | 29.79 | NE | 2 | 0.12 |
| 11 | 10/14 | 14:00 | 51 | 45 | 80 | 29.82 | ENE | 4 | 0.12 |
| 12 | 10/14 | 13:00 | 51 | 45 | 82 | 29.86 | N | 3 | 0.22 |
| 13 | 10/14 | 12:00 | 51 | 46 | 83 | 29.86 | ESE | 2 | 0.14 |
| 14 | 10/14 | 11:00 | 52 | 46 | 81 | 29.87 | ESE | 4 | 0.09 |
| 15 | 10/14 | 10:00 | 52 | 46 | 80 | 29.90 | WSW | 3 | 0.00 |
| 16 | 10/14 | 09:00 | 50 | 43 | 79 | 29.89 | ENE | 2 | 0.00 |
| 17 | 10/14 | 08:00 | 45 | 41 | 86 | 29.91 | ENE | 2 | 0.00 |
| 18 | 10/14 | 07:00 | 42 | 39 | 92 | 29.91 | E | 2 | 0.00 |
| 19 | 10/14 | 06:00 | 42 | 40 | 94 | 29.92 | ENE | 0 | 0.00 |
| 20 | 10/14 | 05:00 | 41 | 39 | 95 | 29.93 | E | 1 | 0.00 |
| 21 | 10/14 | 04:00 | 40 | 39 | 97 | 29.94 | SSE | 0 | 0.00 |
| 22 | 10/14 | 03:00 | 40 | 39 | 99 | 29.95 | SSE | 1 | 0.00 |
| 23 | 10/14 | 02:00 | 41 | 41 | 100 | 29.98 | SE | 0 | 0.00 |
| 24 | 10/14 | 01:00 | 42 | 41 | 100 | 29.99 | SSE | 1 | 0.00 |